Time;durP1;ratioP1;P1;durP2;ratioP2;P2;SDS_P1;SDS_P2;PMS_P1;PMS_P2;Temp;Humidity;BMP_temperature;BMP_pressure;BME280_temperature;BME280_humidity;BME280_pressure;Samples;Min_cycle;Max_cycle;Signal;HPM_P1;HPM_P2
2023/01/27 00:00:24;;;;;;;59.70;47.47;;;17.20;57.50;;;;;;4933900;28;93863;-57
2023/01/27 00:02:50;;;;;;;62.00;48.20;;;17.20;57.50;;;;;;4943247;28;93367;-58
2023/01/27 00:05:17;;;;;;;61.53;47.92;;;17.20;57.50;;;;;;4937794;28;89616;-49
2023/01/27 00:07:46;;;;;;;62.03;48.00;;;17.20;57.60;;;;;;4933313;28;96297;-55
2023/01/27 00:10:15;;;;;;;64.30;48.20;;;17.10;58.30;;;;;;4927433;28;97292;-56
2023/01/27 00:15:26;;;;;;;64.60;48.08;;;17.00;57.60;;;;;;4941531;28;92273;-58
2023/01/27 00:17:52;;;;;;;62.88;48.17;;;17.00;57.70;;;;;;4934536;28;90062;-54
2023/01/27 00:24:34;;;;;;;60.35;47.50;;;17.00;57.90;;;;;;4936592;28;92831;-54
2023/01/27 00:25:49;;;;;;;60.47;47.70;;;16.90;57.80;;;;;;4942348;28;90018;-54
2023/01/27 00:28:21;;;;;;;59.40;47.35;;;16.90;57.90;;;;;;4939114;28;90125;-58
2023/01/27 00:30:49;;;;;;;62.95;47.80;;;16.90;58.00;;;;;;4930375;28;95887;-54
2023/01/27 00:33:23;;;;;;;61.97;47.53;;;16.80;58.00;;;;;;4943260;28;92508;-58
2023/01/27 00:35:49;;;;;;;61.75;47.95;;;16.80;58.20;;;;;;4932809;28;91926;-58
2023/01/27 00:38:15;;;;;;;63.20;47.70;;;16.80;58.30;;;;;;4935129;28;92805;-49
2023/01/27 00:41:13;;;;;;;60.33;47.70;;;16.80;58.30;;;;;;4922050;28;93052;-57
2023/01/27 00:43:26;;;;;;;60.47;47.53;;;16.70;58.30;;;;;;4943842;28;93352;-57
2023/01/27 00:45:51;;;;;;;61.97;47.42;;;16.70;58.70;;;;;;4944574;28;89931;-57
2023/01/27 00:48:17;;;;;;;59.45;47.63;;;16.60;58.20;;;;;;4942330;28;91485;-55
2023/01/27 00:50:43;;;;;;;61.38;47.65;;;16.70;58.20;;;;;;4928549;28;91507;-48
2023/01/27 00:53:08;;;;;;;60.28;47.30;;;16.60;58.40;;;;;;4940710;28;90190;-57
2023/01/27 00:55:34;;;;;;;60.60;47.47;;;16.60;58.30;;;;;;4941599;28;89264;-53
2023/01/27 00:57:59;;;;;;;60.33;47.85;;;16.60;58.40;;;;;;4944307;28;91705;-58
2023/01/27 01:00:25;;;;;;;62.20;47.95;;;16.50;58.40;;;;;;4938184;28;91053;-54
2023/01/27 01:02:51;;;;;;;61.08;47.42;;;16.50;58.40;;;;;;4944090;28;91134;-55
2023/01/27 01:05:16;;;;;;;58.80;47.40;;;16.40;58.00;;;;;;4930177;28;92083;-52
2023/01/27 01:07:42;;;;;;;59.47;47.55;;;16.30;58.50;;;;;;4930812;28;93665;-57
2023/01/27 01:10:08;;;;;;;60.80;47.55;;;16.40;58.80;;;;;;4928214;28;97598;-57
2023/01/27 01:12:34;;;;;;;58.65;47.15;;;16.30;58.60;;;;;;4930493;28;89921;-58
2023/01/27 01:15:00;;;;;;;61.58;47.65;;;16.30;58.60;;;;;;4933754;28;92280;-57
2023/01/27 01:17:25;;;;;;;59.42;47.47;;;16.30;58.70;;;;;;4940841;28;94521;-54
2023/01/27 01:19:51;;;;;;;62.38;47.45;;;16.30;58.60;;;;;;4934151;28;93387;-57
2023/01/27 01:22:16;;;;;;;61.42;47.38;;;16.30;58.80;;;;;;4938403;28;90251;-54
2023/01/27 01:24:42;;;;;;;61.40;47.45;;;16.30;58.70;;;;;;4941901;28;92222;-56
2023/01/27 01:27:08;;;;;;;60.55;47.20;;;16.20;58.70;;;;;;4940190;28;93286;-57
2023/01/27 01:30:05;;;;;;;61.13;47.60;;;16.20;58.80;;;;;;4930177;28;94096;-58
2023/01/27 01:32:30;;;;;;;59.88;46.97;;;16.10;59.00;;;;;;4931009;28;93151;-56
2023/01/27 01:34:56;;;;;;;59.55;47.47;;;16.10;59.00;;;;;;4940514;28;89755;-56
2023/01/27 01:37:21;;;;;;;58.83;47.10;;;16.10;59.00;;;;;;4945239;28;91047;-58
2023/01/27 01:39:47;;;;;;;59.38;47.03;;;16.10;58.80;;;;;;4940402;28;94038;-55
2023/01/27 01:42:13;;;;;;;58.38;47.13;;;16.10;58.80;;;;;;4948426;28;90578;-58
2023/01/27 01:44:42;;;;;;;59.15;47.53;;;16.10;58.80;;;;;;4937843;28;89190;-57
2023/01/27 01:47:17;;;;;;;60.30;47.55;;;16.10;58.90;;;;;;4934554;28;91448;-58
2023/01/27 01:49:45;;;;;;;59.72;47.22;;;16.10;59.10;;;;;;4931464;28;96175;-51
2023/01/27 01:52:18;;;;;;;58.42;47.28;;;16.00;58.80;;;;;;4936742;28;92128;-54
2023/01/27 01:54:49;;;;;;;58.72;47.35;;;16.00;58.80;;;;;;4945986;28;95168;-58
2023/01/27 01:57:19;;;;;;;59.27;47.20;;;16.00;58.90;;;;;;4929496;28;92111;-58
2023/01/27 01:59:51;;;;;;;58.40;46.83;;;16.00;58.80;;;;;;4941201;28;92484;-56
2023/01/27 02:02:18;;;;;;;58.08;47.00;;;15.90;58.70;;;;;;4925078;28;93331;-58
2023/01/27 02:04:53;;;;;;;60.03;46.90;;;15.90;58.90;;;;;;4936308;28;90325;-58
2023/01/27 02:07:27;;;;;;;59.63;47.30;;;15.90;58.80;;;;;;4935662;28;90138;-58
2023/01/27 02:09:55;;;;;;;58.78;47.28;;;15.90;58.90;;;;;;4944986;28;90908;-57
2023/01/27 02:12:21;;;;;;;57.72;46.92;;;15.80;58.80;;;;;;4938242;28;90657;-55
2023/01/27 02:14:46;;;;;;;58.10;46.95;;;15.90;59.00;;;;;;4939665;28;95632;-56
2023/01/27 02:17:13;;;;;;;57.85;46.83;;;15.90;58.90;;;;;;4939910;28;97463;-52
2023/01/27 02:20:13;;;;;;;58.40;47.13;;;15.80;58.90;;;;;;4939635;28;91698;-58
2023/01/27 02:23:05;;;;;;;58.53;46.90;;;15.80;58.90;;;;;;4948145;28;90984;-59
2023/01/27 02:25:33;;;;;;;;;;;15.80;59.10;;;;;;4928727;28;92179;-58
2023/01/27 02:28:03;;;;;;;58.80;47.05;;;15.80;59.00;;;;;;4935515;28;93990;-57
2023/01/27 02:30:29;;;;;;;60.53;46.90;;;15.80;58.90;;;;;;4941831;28;90024;-57
2023/01/27 02:32:54;;;;;;;58.80;47.20;;;15.80;58.90;;;;;;4935847;28;94871;-57
2023/01/27 02:35:32;;;;;;;59.22;47.08;;;15.70;58.80;;;;;;4942641;28;90095;-55
2023/01/27 02:37:58;;;;;;;57.22;46.85;;;15.70;58.90;;;;;;4942582;28;90801;-50
2023/01/27 02:40:26;;;;;;;59.80;47.20;;;15.60;59.10;;;;;;4940432;28;93758;-57
2023/01/27 02:42:57;;;;;;;59.95;47.05;;;15.70;59.00;;;;;;4930597;28;93580;-57
2023/01/27 02:45:23;;;;;;;59.08;46.83;;;15.60;59.00;;;;;;4928688;28;93857;-57
2023/01/27 02:47:48;;;;;;;59.60;47.08;;;15.70;58.90;;;;;;4930516;28;90092;-56
2023/01/27 02:50:14;;;;;;;58.67;46.97;;;15.60;58.50;;;;;;4936280;28;91319;-53
2023/01/27 02:52:40;;;;;;;57.05;46.85;;;15.60;58.70;;;;;;4925487;28;91675;-57
2023/01/27 02:55:06;;;;;;;58.65;47.13;;;15.60;59.00;;;;;;4936955;28;91777;-49
2023/01/27 02:57:32;;;;;;;61.13;47.10;;;15.60;59.00;;;;;;4917587;28;93901;-59
2023/01/27 02:59:57;;;;;;;59.78;47.05;;;15.50;58.90;;;;;;4934039;28;91582;-57
2023/01/27 03:02:35;;;;;;;57.85;46.95;;;15.60;59.00;;;;;;4926067;28;95465;-54
2023/01/27 03:05:01;;;;;;;58.13;46.92;;;15.50;58.90;;;;;;4925929;28;95972;-52
2023/01/27 03:07:27;;;;;;;57.58;46.90;;;15.50;58.60;;;;;;4929188;28;93078;-58
2023/01/27 03:09:53;;;;;;;58.83;47.05;;;15.50;58.80;;;;;;4924787;28;98540;-58
2023/01/27 03:12:18;;;;;;;59.35;46.95;;;15.50;58.60;;;;;;4931071;28;92612;-57
2023/01/27 03:20:12;;;;;;;58.95;47.00;;;15.40;58.80;;;;;;4926331;28;92962;-57
2023/01/27 03:22:38;;;;;;;57.95;47.00;;;15.50;58.90;;;;;;4946542;28;91933;-56
2023/01/27 03:25:04;;;;;;;59.17;46.92;;;15.50;58.80;;;;;;4941408;28;91281;-48
2023/01/27 03:27:30;;;;;;;60.03;46.85;;;15.50;58.90;;;;;;4921135;28;93500;-55
2023/01/27 03:29:56;;;;;;;57.30;46.92;;;15.50;58.90;;;;;;4924350;28;94659;-53
2023/01/27 03:32:27;;;;;;;57.50;46.58;;;15.50;59.00;;;;;;4922702;28;94269;-57
2023/01/27 03:34:53;;;;;;;59.17;46.88;;;15.50;58.90;;;;;;4937837;28;93084;-57
2023/01/27 03:48:20;;;;;;;57.88;47.05;;;15.40;59.60;;;;;;4942378;28;89715;-54
2023/01/27 03:50:51;;;;;;;60.45;46.78;;;15.30;58.90;;;;;;4930894;28;91081;-58
2023/01/27 03:53:18;;;;;;;57.45;46.78;;;15.40;59.00;;;;;;4942387;28;92668;-54
2023/01/27 03:55:45;;;;;;;57.88;47.00;;;15.40;58.90;;;;;;4925255;28;92017;-57
2023/01/27 03:58:25;;;;;;;58.67;46.85;;;15.40;59.10;;;;;;4927580;28;93747;-57
2023/01/27 04:00:51;;;;;;;57.53;46.75;;;15.40;59.00;;;;;;4927527;28;97166;-57
2023/01/27 04:08:58;;;;;;;57.72;46.75;;;15.40;58.90;;;;;;4933512;28;94139;-56
2023/01/27 04:14:10;;;;;;;58.75;47.03;;;15.40;58.90;;;;;;4941080;28;92761;-58
2023/01/27 04:16:37;;;;;;;57.42;46.80;;;15.30;59.00;;;;;;4923571;28;92236;-54
2023/01/27 04:19:07;;;;;;;58.70;47.22;;;15.30;58.90;;;;;;4933883;28;94207;-57
2023/01/27 04:21:33;;;;;;;58.00;46.70;;;15.30;59.00;;;;;;4930218;28;91533;-57
2023/01/27 04:23:59;;;;;;;58.60;46.92;;;15.30;59.00;;;;;;4915364;28;96776;-57
2023/01/27 04:26:25;;;;;;;58.40;46.85;;;15.30;58.80;;;;;;4938804;28;90394;-57
2023/01/27 04:28:51;;;;;;;59.25;46.80;;;15.30;58.80;;;;;;4935932;28;95299;-57
2023/01/27 04:31:17;;;;;;;59.38;46.72;;;15.30;58.90;;;;;;4936511;28;90853;-51
2023/01/27 04:33:44;;;;;;;57.45;46.90;;;15.30;58.90;;;;;;4938045;28;92893;-58
2023/01/27 04:36:14;;;;;;;59.53;46.90;;;15.30;58.80;;;;;;4922221;28;96178;-58
2023/01/27 04:38:39;;;;;;;60.05;46.83;;;15.30;58.80;;;;;;4937455;28;91161;-54
2023/01/27 04:41:05;;;;;;;61.20;47.22;;;15.30;58.90;;;;;;4934054;28;91842;-57
2023/01/27 04:43:31;;;;;;;58.75;46.70;;;15.30;58.80;;;;;;4937885;28;90465;-55
2023/01/27 04:45:56;;;;;;;58.58;46.85;;;15.30;58.80;;;;;;4926621;28;92368;-55
2023/01/27 04:48:22;;;;;;;58.25;46.75;;;15.20;58.90;;;;;;4919873;28;96804;-51
2023/01/27 04:50:48;;;;;;;58.20;46.70;;;15.30;58.90;;;;;;4927571;28;92828;-56
2023/01/27 04:53:14;;;;;;;57.30;46.58;;;15.20;58.80;;;;;;4936525;28;91389;-58
2023/01/27 04:55:41;;;;;;;58.88;47.20;;;15.30;58.70;;;;;;4938590;28;95305;-59
2023/01/27 04:58:07;;;;;;;56.97;46.70;;;15.30;58.80;;;;;;4943436;28;89892;-57
2023/01/27 05:00:33;;;;;;;58.20;46.83;;;15.30;58.70;;;;;;4932404;28;92068;-53
2023/01/27 05:02:58;;;;;;;59.28;46.67;;;15.30;58.80;;;;;;4946190;28;95494;-53
2023/01/27 05:05:24;;;;;;;58.47;46.88;;;15.30;58.80;;;;;;4940865;28;90102;-57
2023/01/27 05:07:49;;;;;;;58.30;46.47;;;15.20;58.80;;;;;;4940011;28;91790;-58
2023/01/27 05:10:15;;;;;;;61.08;46.55;;;15.20;58.60;;;;;;4941513;28;92309;-59
2023/01/27 05:12:41;;;;;;;61.25;47.20;;;15.20;58.80;;;;;;4935188;28;96010;-56
2023/01/27 05:15:07;;;;;;;62.58;47.17;;;15.20;58.80;;;;;;4935065;28;91494;-51
2023/01/27 05:17:34;;;;;;;59.90;47.35;;;15.30;58.80;;;;;;4931166;28;91242;-58
2023/01/27 05:19:59;;;;;;;59.47;47.03;;;15.20;58.90;;;;;;4937094;28;91135;-58
2023/01/27 05:22:25;;;;;;;63.72;47.13;;;15.20;58.90;;;;;;4928120;28;90134;-58
2023/01/27 05:24:51;;;;;;;64.70;47.15;;;15.20;58.80;;;;;;4946800;28;90342;-58
2023/01/27 05:27:16;;;;;;;62.05;47.22;;;15.20;58.90;;;;;;4947483;28;91057;-51
2023/01/27 05:29:43;;;;;;;61.13;47.13;;;15.20;58.90;;;;;;4928976;28;94825;-57
2023/01/27 05:32:08;;;;;;;58.95;47.03;;;15.20;58.90;;;;;;4938866;28;90197;-51
2023/01/27 05:34:34;;;;;;;64.68;47.00;;;15.20;58.90;;;;;;4930714;28;90432;-57
2023/01/27 05:37:00;;;;;;;65.82;47.60;;;15.20;58.90;;;;;;4937052;28;93407;-56
2023/01/27 05:39:26;;;;;;;64.63;47.58;;;15.10;58.90;;;;;;4949140;28;95673;-58
2023/01/27 05:41:53;;;;;;;61.03;47.03;;;15.10;59.10;;;;;;4937829;28;93639;-57
2023/01/27 05:44:18;;;;;;;65.80;47.10;;;15.10;58.90;;;;;;4944303;28;90049;-59
2023/01/27 05:46:44;;;;;;;64.32;47.10;;;15.10;59.00;;;;;;4927265;28;92933;-58
2023/01/27 05:49:10;;;;;;;66.50;47.53;;;15.20;58.90;;;;;;4934392;28;91580;-58
2023/01/27 05:51:38;;;;;;;65.97;47.60;;;15.10;59.00;;;;;;4925201;28;92298;-50
2023/01/27 05:54:05;;;;;;;64.20;47.75;;;15.10;58.90;;;;;;4934474;28;90251;-58
2023/01/27 05:56:31;;;;;;;65.18;47.35;;;15.10;58.70;;;;;;4937684;28;92448;-58
2023/01/27 05:58:57;;;;;;;66.55;47.05;;;15.10;58.90;;;;;;4937080;28;91509;-58
2023/01/27 06:01:25;;;;;;;62.55;47.50;;;15.10;58.80;;;;;;4927980;28;91630;-54
2023/01/27 06:03:51;;;;;;;61.28;47.42;;;15.10;58.70;;;;;;4922485;28;94248;-58
2023/01/27 06:06:19;;;;;;;64.43;47.25;;;15.10;58.70;;;;;;4935534;28;94070;-54
2023/01/27 06:08:46;;;;;;;62.47;47.28;;;15.00;58.70;;;;;;4929405;28;97127;-59
2023/01/27 06:11:12;;;;;;;69.20;47.55;;;15.10;58.90;;;;;;4941599;28;90054;-58
2023/01/27 06:13:38;;;;;;;65.70;47.50;;;15.00;58.70;;;;;;4929245;28;92498;-56
2023/01/27 06:16:06;;;;;;;64.60;47.45;;;15.00;58.70;;;;;;4932504;28;98274;-57
2023/01/27 06:18:32;;;;;;;63.20;47.40;;;15.00;58.80;;;;;;4936848;28;92204;-57
2023/01/27 06:21:02;;;;;;;62.78;47.78;;;15.00;59.00;;;;;;4930976;28;90968;-57
2023/01/27 06:23:28;;;;;;;64.78;47.53;;;15.10;59.00;;;;;;4940013;28;91452;-56
2023/01/27 06:25:55;;;;;;;64.55;47.58;;;15.00;58.70;;;;;;4941254;28;91349;-51
2023/01/27 06:28:21;;;;;;;64.82;47.35;;;15.00;58.90;;;;;;4931081;28;91741;-58
2023/01/27 06:30:47;;;;;;;63.00;48.03;;;15.00;58.90;;;;;;4934302;28;92878;-53
2023/01/27 06:33:13;;;;;;;66.15;47.75;;;15.00;58.90;;;;;;4924422;28;96109;-49
2023/01/27 06:35:39;;;;;;;62.55;47.70;;;15.00;59.00;;;;;;4942007;28;91305;-54
2023/01/27 06:38:09;;;;;;;66.30;47.72;;;15.00;59.10;;;;;;4931545;28;96311;-57
2023/01/27 06:40:35;;;;;;;65.78;47.47;;;15.00;59.00;;;;;;4928423;28;92856;-57
2023/01/27 06:43:01;;;;;;;69.63;48.17;;;15.00;58.90;;;;;;4927786;28;94151;-58
2023/01/27 06:45:27;;;;;;;65.35;47.83;;;15.00;58.80;;;;;;4934093;28;91394;-57
2023/01/27 06:47:57;;;;;;;63.72;47.90;;;15.00;58.70;;;;;;4928354;28;93639;-58
2023/01/27 06:50:24;;;;;;;65.00;47.50;;;15.00;58.90;;;;;;4930080;28;92383;-55
2023/01/27 06:52:50;;;;;;;66.88;48.03;;;15.00;58.90;;;;;;4933902;28;91783;-56
2023/01/27 06:55:18;;;;;;;68.90;48.15;;;15.00;58.90;;;;;;4928039;28;99176;-55
2023/01/27 06:57:46;;;;;;;64.07;47.55;;;15.00;59.00;;;;;;4927028;28;92454;-58
2023/01/27 07:00:14;;;;;;;66.82;47.70;;;15.00;59.10;;;;;;4936690;28;90091;-50
2023/01/27 07:02:39;;;;;;;67.03;47.75;;;15.00;59.10;;;;;;4924718;28;96191;-52
2023/01/27 07:05:05;;;;;;;64.45;48.08;;;15.00;59.20;;;;;;4924250;28;93479;-57
2023/01/27 07:07:31;;;;;;;66.10;48.25;;;15.00;59.30;;;;;;4933950;28;96780;-54
2023/01/27 07:09:57;;;;;;;62.78;48.10;;;15.00;59.50;;;;;;4933469;28;90276;-58
2023/01/27 07:12:23;;;;;;;65.53;48.05;;;15.00;59.10;;;;;;4923115;28;95222;-57
2023/01/27 07:14:48;;;;;;;66.05;48.80;;;15.00;59.10;;;;;;4922056;28;93957;-51
2023/01/27 07:17:14;;;;;;;61.75;49.42;;;15.00;59.30;;;;;;4931002;28;93345;-57
2023/01/27 07:19:39;;;;;;;66.30;50.63;;;15.00;59.50;;;;;;4938691;28;92027;-57
2023/01/27 07:22:05;;;;;;;67.70;50.08;;;14.90;59.90;;;;;;4936265;28;93467;-58
2023/01/27 07:24:31;;;;;;;65.88;50.10;;;14.90;61.10;;;;;;4937004;28;92411;-57
2023/01/27 07:26:56;;;;;;;64.80;49.95;;;14.90;61.00;;;;;;4935661;28;91813;-55
2023/01/27 07:29:22;;;;;;;63.17;49.47;;;15.00;60.40;;;;;;4942064;28;93570;-57
2023/01/27 07:31:48;;;;;;;67.55;49.55;;;15.00;60.20;;;;;;4941641;28;90334;-57
2023/01/27 07:34:13;;;;;;;61.92;49.38;;;15.00;60.00;;;;;;4931600;28;91667;-54
2023/01/27 07:36:39;;;;;;;66.53;49.80;;;15.00;60.70;;;;;;4920502;28;96136;-57
2023/01/27 07:39:05;;;;;;;66.88;49.17;;;15.00;61.10;;;;;;4930695;28;92990;-58
2023/01/27 07:41:30;;;;;;;64.55;49.60;;;15.00;61.30;;;;;;4933776;28;91177;-59
2023/01/27 07:43:56;;;;;;;67.28;48.90;;;15.00;61.70;;;;;;4916194;28;93455;-55
2023/01/27 07:46:22;;;;;;;63.13;49.25;;;15.00;62.10;;;;;;4920052;28;96394;-57
2023/01/27 07:48:47;;;;;;;63.47;49.30;;;15.30;62.00;;;;;;4922687;28;94940;-58
2023/01/27 07:51:14;;;;;;;73.80;49.55;;;15.60;60.90;;;;;;4926343;28;95902;-59
2023/01/27 07:53:41;;;;;;;64.45;49.65;;;15.70;61.00;;;;;;4929385;28;93500;-59
2023/01/27 07:56:13;;;;;;;65.38;49.38;;;15.80;60.40;;;;;;4921554;28;93674;-53
2023/01/27 07:58:39;;;;;;;70.15;49.88;;;15.90;59.90;;;;;;4931093;28;90210;-52
2023/01/27 08:01:07;;;;;;;66.25;49.25;;;16.10;60.60;;;;;;4919961;28;93505;-57
2023/01/27 08:03:32;;;;;;;62.97;49.30;;;16.20;59.60;;;;;;4935728;28;92989;-52
2023/01/27 08:05:58;;;;;;;68.85;49.75;;;16.10;60.00;;;;;;4935327;28;96084;-56
2023/01/27 08:08:24;;;;;;;67.68;49.30;;;16.00;60.20;;;;;;4931129;28;90352;-54
2023/01/27 08:10:50;;;;;;;68.05;49.50;;;16.10;60.10;;;;;;4938808;28;93074;-59
2023/01/27 08:13:16;;;;;;;68.50;49.72;;;16.10;61.10;;;;;;4926544;28;90675;-59
2023/01/27 08:15:42;;;;;;;64.07;49.63;;;16.00;60.50;;;;;;4945664;28;92094;-58
2023/01/27 08:18:09;;;;;;;66.22;49.38;;;16.00;60.60;;;;;;4932429;28;96203;-59
2023/01/27 08:20:35;;;;;;;63.42;49.75;;;15.90;60.70;;;;;;4924305;28;93982;-58
2023/01/27 08:23:00;;;;;;;68.50;49.55;;;15.90;61.10;;;;;;4943625;28;91416;-58
2023/01/27 08:25:26;;;;;;;67.50;49.58;;;16.00;61.30;;;;;;4941755;28;92354;-58
2023/01/27 08:27:54;;;;;;;64.18;49.42;;;16.00;61.20;;;;;;4937736;28;91368;-57
2023/01/27 08:30:20;;;;;;;67.20;50.05;;;16.00;61.10;;;;;;4931816;28;90474;-58
2023/01/27 08:32:46;;;;;;;63.15;49.55;;;16.10;61.00;;;;;;4932081;28;94323;-55
2023/01/27 08:35:12;;;;;;;68.72;49.58;;;16.10;61.10;;;;;;4935026;28;93183;-57
2023/01/27 08:37:38;;;;;;;69.43;50.00;;;16.00;61.00;;;;;;4929252;28;98351;-54
2023/01/27 08:40:04;;;;;;;73.70;51.05;;;16.10;61.00;;;;;;4936055;28;96126;-53
2023/01/27 08:42:29;;;;;;;70.07;51.03;;;16.10;60.20;;;;;;4930090;28;96463;-52
2023/01/27 08:44:55;;;;;;;72.65;52.80;;;16.10;60.30;;;;;;4923898;28;94618;-59
2023/01/27 08:47:20;;;;;;;73.68;52.88;;;16.10;59.90;;;;;;4920550;28;92168;-57
2023/01/27 08:49:46;;;;;;;81.50;52.75;;;16.00;59.70;;;;;;4927913;28;91849;-53
2023/01/27 08:52:12;;;;;;;70.85;51.58;;;16.00;59.80;;;;;;4917969;28;93234;-58
2023/01/27 08:54:38;;;;;;;80.30;53.33;;;15.80;60.60;;;;;;4920413;28;92737;-50
2023/01/27 08:57:04;;;;;;;85.22;54.28;;;15.90;60.10;;;;;;4928282;28;92132;-56
2023/01/27 08:59:30;;;;;;;85.82;54.75;;;16.00;59.40;;;;;;4910011;28;95194;-58
2023/01/27 09:01:55;;;;;;;84.90;55.03;;;16.00;59.80;;;;;;4910549;28;96000;-47
2023/01/27 09:04:22;;;;;;;88.68;54.15;;;16.10;61.00;;;;;;4922049;28;92564;-60
2023/01/27 09:06:49;;;;;;;93.38;55.75;;;16.00;62.00;;;;;;4925091;28;93521;-55
2023/01/27 09:09:15;;;;;;;81.75;55.60;;;16.10;62.80;;;;;;4919455;28;91177;-61
2023/01/27 09:11:43;;;;;;;79.55;54.75;;;16.10;62.50;;;;;;4933295;28;95389;-57
2023/01/27 09:14:10;;;;;;;83.32;55.03;;;16.00;62.10;;;;;;4926364;28;91721;-52
2023/01/27 09:16:36;;;;;;;79.07;54.95;;;15.90;62.80;;;;;;4922775;28;91459;-61
2023/01/27 09:19:02;;;;;;;84.60;53.95;;;15.90;62.20;;;;;;4927009;28;89973;-51
2023/01/27 09:21:28;;;;;;;82.35;53.45;;;15.80;61.90;;;;;;4918506;28;96457;-59
2023/01/27 09:23:54;;;;;;;81.43;54.30;;;15.80;62.00;;;;;;4931027;28;91287;-59
2023/01/27 09:26:20;;;;;;;78.05;53.42;;;15.80;62.20;;;;;;4938857;28;89967;-61
2023/01/27 09:28:45;;;;;;;80.15;52.95;;;15.80;62.50;;;;;;4933545;28;91221;-61
2023/01/27 09:31:11;;;;;;;82.82;54.30;;;15.70;62.70;;;;;;4932239;28;91478;-63
2023/01/27 09:33:37;;;;;;;86.70;54.38;;;15.80;62.60;;;;;;4931402;28;91735;-62
2023/01/27 09:36:10;;;;;;;75.95;53.67;;;15.80;62.70;;;;;;4921941;28;96760;-63
2023/01/27 09:38:42;;;;;;;77.68;54.35;;;15.80;62.60;;;;;;4934030;28;90968;-59
2023/01/27 09:41:14;;;;;;;81.50;53.90;;;15.80;62.50;;;;;;4936236;28;95045;-62
2023/01/27 09:43:42;;;;;;;80.15;54.15;;;15.90;62.30;;;;;;4930803;28;91937;-55
2023/01/27 09:46:24;;;;;;;77.05;52.90;;;15.80;62.30;;;;;;4919693;28;93281;-59
2023/01/27 09:48:59;;;;;;;;;;;15.90;62.30;;;;;;4925493;28;91643;-58
2023/01/27 09:51:53;;;;;;;85.93;54.03;;;15.80;62.50;;;;;;4926957;28;95329;-58
2023/01/27 09:54:43;;;;;;;77.22;53.60;;;15.80;62.40;;;;;;4925240;28;95707;-61
2023/01/27 09:57:40;;;;;;;83.57;53.50;;;15.90;62.50;;;;;;4941974;28;91208;-51
2023/01/27 10:00:19;;;;;;;79.88;53.42;;;16.00;61.90;;;;;;4915010;28;90916;-57
2023/01/27 10:02:57;;;;;;;75.50;53.10;;;16.00;61.50;;;;;;4911545;28;94258;-55
2023/01/27 10:05:41;;;;;;;79.43;52.95;;;16.10;61.30;;;;;;4915546;28;94490;-60
2023/01/27 10:08:33;;;;;;;74.68;52.78;;;16.20;60.80;;;;;;4928981;28;96786;-52
2023/01/27 10:11:40;;;;;;;73.90;52.75;;;16.20;60.20;;;;;;4936721;28;93279;-61
2023/01/27 10:14:18;;;;;;;75.57;53.00;;;16.10;60.10;;;;;;4920319;28;90130;-62
2023/01/27 10:17:03;;;;;;;71.78;52.45;;;16.10;60.40;;;;;;4935990;28;92507;-62
2023/01/27 10:19:31;;;;;;;72.93;52.35;;;16.10;60.20;;;;;;4946469;28;92529;-61
2023/01/27 10:22:20;;;;;;;69.90;52.10;;;16.00;60.00;;;;;;4945194;28;90131;-61
2023/01/27 10:25:17;;;;;;;71.43;52.28;;;16.10;59.80;;;;;;4941158;28;92567;-62
2023/01/27 10:27:58;;;;;;;77.60;52.92;;;16.10;59.70;;;;;;4942316;28;90923;-59
2023/01/27 10:30:27;;;;;;;70.53;52.00;;;16.10;59.50;;;;;;4937134;28;91377;-62
2023/01/27 10:33:18;;;;;;;80.47;53.47;;;16.10;59.60;;;;;;4950715;28;89999;-61
2023/01/27 10:35:52;;;;;;;68.32;52.05;;;16.20;59.20;;;;;;4923972;28;95774;-61
2023/01/27 10:38:48;;;;;;;74.78;52.45;;;16.20;59.10;;;;;;4932907;28;92731;-61
2023/01/27 10:41:25;;;;;;;68.43;51.95;;;16.20;59.20;;;;;;4936923;28;95784;-54
2023/01/27 10:43:59;;;;;;;73.97;51.65;;;16.10;59.20;;;;;;4941418;28;92587;-58
2023/01/27 10:46:46;;;;;;;68.25;51.40;;;16.20;59.80;;;;;;4943863;28;91593;-57
2023/01/27 10:49:22;;;;;;;73.75;51.97;;;16.10;59.30;;;;;;4937481;28;91175;-52
2023/01/27 10:52:14;;;;;;;68.47;51.55;;;16.20;59.10;;;;;;4946485;28;90861;-64
2023/01/27 10:54:49;;;;;;;66.55;50.85;;;16.20;59.10;;;;;;4940103;28;89408;-64
2023/01/27 10:57:28;;;;;;;68.53;52.00;;;16.20;59.20;;;;;;4938073;28;93004;-65
2023/01/27 11:00:13;;;;;;;69.13;51.78;;;16.20;59.00;;;;;;4947554;28;95684;-64
2023/01/27 11:02:46;;;;;;;68.38;51.75;;;16.20;58.70;;;;;;4951459;28;91101;-64
2023/01/27 11:05:19;;;;;;;70.18;51.40;;;16.20;58.70;;;;;;4949001;28;91791;-58
2023/01/27 11:07:56;;;;;;;68.15;51.15;;;16.20;59.60;;;;;;4938461;28;90844;-59
2023/01/27 11:10:24;;;;;;;69.38;51.63;;;16.20;60.30;;;;;;4944847;28;91999;-60
2023/01/27 11:12:54;;;;;;;65.55;51.40;;;16.20;61.30;;;;;;4944377;28;90273;-61
2023/01/27 11:15:31;;;;;;;69.45;51.08;;;16.10;61.80;;;;;;4948105;28;91108;-61
2023/01/27 11:17:57;;;;;;;66.07;51.03;;;16.10;62.20;;;;;;4951223;28;91376;-61
2023/01/27 11:20:28;;;;;;;65.97;50.90;;;16.10;63.10;;;;;;4948302;28;90989;-60
2023/01/27 11:23:09;;;;;;;67.43;51.45;;;16.20;62.00;;;;;;4945046;28;91142;-52
2023/01/27 11:25:41;;;;;;;68.20;51.30;;;16.20;61.90;;;;;;4975213;28;90340;-54
2023/01/27 11:28:21;;;;;;;68.38;50.50;;;16.20;61.90;;;;;;4944624;28;93738;-60
2023/01/27 11:31:24;;;;;;;65.68;51.40;;;16.20;61.50;;;;;;4941743;28;93128;-57
2023/01/27 11:34:38;;;;;;;66.90;50.88;;;16.20;61.00;;;;;;4948124;28;90678;-51
2023/01/27 11:37:32;;;;;;;64.03;50.60;;;16.10;61.10;;;;;;4895927;28;91302;-60
2023/01/27 11:39:59;;;;;;;67.32;50.90;;;16.10;60.90;;;;;;4941243;28;91596;-59
2023/01/27 11:42:33;;;;;;;64.68;50.88;;;16.10;60.70;;;;;;4938442;28;91240;-60
2023/01/27 11:45:00;;;;;;;66.43;50.53;;;16.10;60.60;;;;;;4947184;28;89962;-59
2023/01/27 11:47:38;;;;;;;62.75;50.97;;;16.10;60.50;;;;;;4937560;28;89118;-61
2023/01/27 11:50:05;;;;;;;63.10;50.70;;;16.00;60.30;;;;;;4948052;28;94904;-60
2023/01/27 11:52:30;;;;;;;61.25;50.58;;;16.10;60.40;;;;;;4939984;28;91764;-57
2023/01/27 11:55:13;;;;;;;65.20;49.78;;;16.10;60.50;;;;;;4943840;28;93386;-55
2023/01/27 11:57:48;;;;;;;61.58;50.00;;;16.10;60.10;;;;;;4941579;28;90751;-62
2023/01/27 12:00:33;;;;;;;62.83;50.17;;;16.10;60.50;;;;;;4949416;28;90365;-60
2023/01/27 12:03:10;;;;;;;63.00;49.40;;;16.00;59.90;;;;;;4946687;28;91010;-60
2023/01/27 12:05:44;;;;;;;64.00;49.65;;;16.10;59.70;;;;;;4946977;28;89960;-59
2023/01/27 12:08:09;;;;;;;63.28;49.65;;;16.10;59.90;;;;;;4944510;28;92060;-58
2023/01/27 12:10:39;;;;;;;61.35;49.90;;;16.00;59.90;;;;;;4942528;28;92591;-59
2023/01/27 12:13:19;;;;;;;62.63;50.05;;;16.00;59.80;;;;;;4952504;28;90899;-59
2023/01/27 12:15:53;;;;;;;63.03;49.70;;;16.00;59.80;;;;;;4949093;28;90489;-59
2023/01/27 12:18:19;;;;;;;62.97;49.47;;;16.00;59.80;;;;;;4942305;28;89874;-60
2023/01/27 12:20:57;;;;;;;63.20;49.30;;;16.00;59.70;;;;;;4944058;28;93272;-59
2023/01/27 12:23:33;;;;;;;60.78;49.13;;;16.00;59.70;;;;;;4935671;28;91263;-59
2023/01/27 12:26:07;;;;;;;60.67;49.58;;;16.00;59.70;;;;;;4939163;28;92852;-59
2023/01/27 12:28:51;;;;;;;60.58;49.33;;;16.00;59.50;;;;;;4945066;28;89876;-49
2023/01/27 12:31:27;;;;;;;60.08;49.08;;;16.00;59.30;;;;;;4948532;28;90149;-58
2023/01/27 12:34:03;;;;;;;62.28;49.05;;;16.00;59.50;;;;;;4949034;28;91444;-60
2023/01/27 12:36:37;;;;;;;60.33;48.92;;;16.00;59.60;;;;;;4939225;28;91920;-60
2023/01/27 12:39:03;;;;;;;60.38;49.10;;;16.10;59.40;;;;;;4938333;28;91113;-59
2023/01/27 12:41:34;;;;;;;60.55;49.03;;;16.00;59.40;;;;;;4943743;28;93718;-59
2023/01/27 12:44:15;;;;;;;58.70;48.55;;;16.00;59.60;;;;;;4944275;28;90131;-58
2023/01/27 12:47:01;;;;;;;60.28;48.92;;;16.00;59.70;;;;;;4941187;28;91329;-59
2023/01/27 12:49:33;;;;;;;59.63;48.88;;;16.00;59.60;;;;;;4941985;28;93552;-60
2023/01/27 12:52:03;;;;;;;58.72;48.95;;;16.00;59.70;;;;;;4939223;28;92159;-59
2023/01/27 12:54:31;;;;;;;59.30;49.10;;;16.00;59.40;;;;;;4940217;28;91082;-60
2023/01/27 12:57:03;;;;;;;59.95;48.92;;;16.00;59.40;;;;;;4949936;28;90014;-52
2023/01/27 12:59:29;;;;;;;58.90;48.17;;;16.00;59.40;;;;;;4951323;28;90121;-61
2023/01/27 13:02:32;;;;;;;58.30;48.58;;;16.00;59.40;;;;;;4943021;28;93756;-59
2023/01/27 13:05:01;;;;;;;58.50;48.45;;;16.00;59.30;;;;;;4945010;28;91887;-59
2023/01/27 13:07:37;;;;;;;56.83;48.17;;;16.00;59.30;;;;;;4939546;28;93900;-48
2023/01/27 13:10:14;;;;;;;58.22;48.45;;;16.00;59.20;;;;;;4949766;28;90295;-57
2023/01/27 13:13:16;;;;;;;57.63;48.05;;;16.00;59.10;;;;;;4944118;28;92432;-60